Time;durP1;ratioP1;P1;durP2;ratioP2;P2;SDS_P1;SDS_P2;PMS_P1;PMS_P2;Temp;Humidity;BMP_temperature;BMP_pressure;BME280_temperature;BME280_humidity;BME280_pressure;Samples;Min_cycle;Max_cycle;Signal;HPM_P1;HPM_P2
2021/04/01 00:01:53;;;;;;;20.60;12.10;;;14.10;72.20;;;;;;4366366;32;20604;-69
2021/04/01 00:04:25;;;;;;;22.13;13.13;;;14.00;72.90;;;;;;4372983;32;20164;-66
2021/04/01 00:06:52;;;;;;;21.67;12.43;;;14.00;73.00;;;;;;4365027;32;20195;-66
2021/04/01 00:09:18;;;;;;;23.17;14.47;;;14.00;72.70;;;;;;4362584;32;20215;-67
2021/04/01 00:11:44;;;;;;;25.37;13.90;;;14.00;72.60;;;;;;4362278;32;20172;-67
2021/04/01 00:14:11;;;;;;;24.40;13.17;;;13.90;72.80;;;;;;4360947;32;20604;-67
2021/04/01 00:16:37;;;;;;;25.00;14.20;;;14.10;73.10;;;;;;4365371;32;20545;-67
2021/04/01 00:19:05;;;;;;;23.77;13.53;;;14.00;73.50;;;;;;4372335;32;20506;-66
2021/04/01 00:21:31;;;;;;;21.83;14.10;;;14.00;73.60;;;;;;4365637;32;20230;-67
2021/04/01 00:23:57;;;;;;;25.70;14.03;;;14.00;74.00;;;;;;4362059;32;20160;-67
2021/04/01 00:26:24;;;;;;;24.60;13.87;;;13.90;73.80;;;;;;4372074;32;20221;-67
2021/04/01 00:28:51;;;;;;;20.83;13.17;;;13.90;73.60;;;;;;4362761;32;20224;-65
2021/04/01 00:31:18;;;;;;;19.47;12.27;;;13.90;74.00;;;;;;4369118;32;20208;-68
2021/04/01 00:33:45;;;;;;;21.17;13.43;;;13.90;74.50;;;;;;4364245;32;20195;-67
2021/04/01 00:36:12;;;;;;;23.20;13.77;;;13.80;75.20;;;;;;4361676;32;20180;-69
2021/04/01 00:38:38;;;;;;;25.40;13.53;;;13.70;74.60;;;;;;4363048;32;20274;-68
2021/04/01 00:41:05;;;;;;;21.07;13.60;;;13.70;74.20;;;;;;4365782;32;20220;-68
2021/04/01 00:43:31;;;;;;;19.50;12.37;;;13.70;74.90;;;;;;4360402;32;20179;-67
2021/04/01 00:45:57;;;;;;;22.80;12.83;;;13.60;75.20;;;;;;4371213;32;20162;-68
2021/04/01 00:48:24;;;;;;;18.43;12.20;;;13.50;75.20;;;;;;4369283;32;20160;-68
2021/04/01 00:50:50;;;;;;;24.70;12.90;;;13.50;75.40;;;;;;4361010;32;20196;-68
2021/04/01 00:53:17;;;;;;;18.37;11.17;;;13.50;75.40;;;;;;4363472;32;20250;-67
2021/04/01 00:55:44;;;;;;;20.57;12.33;;;13.50;75.80;;;;;;4364031;32;20175;-67
2021/04/01 00:58:10;;;;;;;20.43;12.70;;;13.50;75.30;;;;;;4362934;32;20222;-68
2021/04/01 01:00:37;;;;;;;21.23;13.20;;;13.50;75.40;;;;;;4362883;32;20342;-67
2021/04/01 01:03:04;;;;;;;20.87;12.30;;;13.50;75.50;;;;;;4361502;32;20157;-67
2021/04/01 01:05:33;;;;;;;18.70;11.57;;;13.40;75.80;;;;;;4365022;32;20172;-69
2021/04/01 01:08:00;;;;;;;22.33;11.97;;;13.40;75.90;;;;;;4363565;32;20215;-67
2021/04/01 01:10:30;;;;;;;19.47;12.43;;;13.40;75.80;;;;;;4360578;32;20157;-69
2021/04/01 01:12:57;;;;;;;20.73;12.00;;;13.40;76.90;;;;;;4359677;32;20533;-67
2021/04/01 01:15:24;;;;;;;22.13;13.83;;;13.40;76.40;;;;;;4367726;32;20167;-67
2021/04/01 01:17:55;;;;;;;24.13;13.83;;;13.40;76.80;;;;;;4363617;32;20164;-68
2021/04/01 01:20:25;;;;;;;20.17;13.57;;;13.40;76.40;;;;;;4367123;32;20176;-68
2021/04/01 01:22:55;;;;;;;27.43;15.30;;;13.50;77.00;;;;;;4361588;32;20247;-68
2021/04/01 01:25:22;;;;;;;21.70;14.13;;;13.50;76.30;;;;;;4358810;33;20180;-67
2021/04/01 01:27:49;;;;;;;22.07;13.73;;;13.60;75.90;;;;;;4360493;32;20317;-67
2021/04/01 01:30:18;;;;;;;25.67;15.43;;;13.60;75.40;;;;;;4363412;32;20454;-67
2021/04/01 01:32:47;;;;;;;25.27;14.47;;;13.40;77.90;;;;;;4364794;32;20183;-65
2021/04/01 01:35:19;;;;;;;21.87;14.20;;;13.40;77.70;;;;;;4368209;32;20181;-67
2021/04/01 01:37:47;;;;;;;25.57;14.67;;;13.50;77.10;;;;;;4364145;32;20186;-68
2021/04/01 01:40:14;;;;;;;26.60;16.07;;;13.50;77.40;;;;;;4359343;32;20251;-67
2021/04/01 01:42:41;;;;;;;30.97;17.47;;;13.50;76.60;;;;;;4359660;32;20269;-67
2021/04/01 01:45:09;;;;;;;27.40;16.90;;;13.60;76.40;;;;;;4364279;32;20216;-67
2021/04/01 01:47:35;;;;;;;32.10;16.57;;;13.60;76.40;;;;;;4359687;32;20231;-68
2021/04/01 01:50:02;;;;;;;29.60;17.70;;;13.60;75.90;;;;;;4368255;32;20280;-67
2021/04/01 01:52:31;;;;;;;32.77;19.10;;;13.60;76.00;;;;;;4361355;32;20663;-67
2021/04/01 01:54:57;;;;;;;32.53;18.00;;;13.60;76.60;;;;;;4363069;32;20610;-68
2021/04/01 01:57:24;;;;;;;35.10;18.87;;;13.60;76.20;;;;;;4361185;32;20175;-67
2021/04/01 01:59:52;;;;;;;30.30;18.53;;;13.60;75.40;;;;;;4364224;32;20156;-66
2021/04/01 02:02:19;;;;;;;30.60;18.00;;;13.60;75.10;;;;;;4359519;33;20520;-67
2021/04/01 02:04:45;;;;;;;33.20;18.83;;;13.60;74.90;;;;;;4365696;32;20210;-68
2021/04/01 02:07:11;;;;;;;36.93;19.87;;;13.60;75.10;;;;;;4363627;32;20593;-67
2021/04/01 02:09:44;;;;;;;36.13;19.70;;;13.60;75.00;;;;;;4362715;32;20185;-66
2021/04/01 02:12:13;;;;;;;30.83;18.40;;;13.60;74.50;;;;;;4361657;32;20604;-68
2021/04/01 02:14:39;;;;;;;36.27;19.13;;;13.60;74.10;;;;;;4360598;32;20232;-67
2021/04/01 02:17:07;;;;;;;31.90;19.17;;;13.60;74.00;;;;;;4360733;32;20275;-66
2021/04/01 02:19:33;;;;;;;35.03;19.50;;;13.60;73.90;;;;;;4360354;32;20530;-69
2021/04/01 02:22:00;;;;;;;36.83;18.70;;;13.50;73.70;;;;;;4372303;32;20173;-67
2021/04/01 02:24:26;;;;;;;34.30;19.00;;;13.40;74.00;;;;;;4364850;32;20156;-69
2021/04/01 02:26:54;;;;;;;37.87;19.47;;;13.30;74.10;;;;;;4369497;32;20222;-67
2021/04/01 02:29:21;;;;;;;35.97;20.77;;;13.10;75.70;;;;;;4364040;32;20180;-67
2021/04/01 02:31:48;;;;;;;37.00;19.10;;;13.00;75.40;;;;;;4372304;32;20242;-66
2021/04/01 02:34:15;;;;;;;32.00;18.93;;;13.00;75.40;;;;;;4367854;32;20216;-66
2021/04/01 02:36:41;;;;;;;32.57;18.53;;;12.80;75.40;;;;;;4363755;32;20173;-68
2021/04/01 02:39:08;;;;;;;35.23;19.20;;;12.70;76.50;;;;;;4364362;32;20597;-68
2021/04/01 02:41:34;;;;;;;32.33;18.43;;;12.70;76.40;;;;;;4362500;32;20592;-65
2021/04/01 02:44:01;;;;;;;31.40;18.17;;;12.60;76.80;;;;;;4362658;32;20596;-66
2021/04/01 02:46:27;;;;;;;35.53;19.47;;;12.60;76.70;;;;;;4364509;32;20216;-66
2021/04/01 02:48:53;;;;;;;31.93;18.67;;;12.50;77.20;;;;;;4368855;32;20157;-68
2021/04/01 02:51:20;;;;;;;34.40;18.53;;;12.40;77.80;;;;;;4372994;32;20181;-68
2021/04/01 02:53:47;;;;;;;39.63;21.07;;;12.40;77.20;;;;;;4362427;32;20173;-67
2021/04/01 02:56:13;;;;;;;34.90;20.20;;;12.30;77.10;;;;;;4372815;32;20619;-68
2021/04/01 02:58:39;;;;;;;33.30;17.93;;;12.30;77.30;;;;;;4361190;32;20169;-69
2021/04/01 03:01:08;;;;;;;36.50;20.03;;;12.20;78.10;;;;;;4365035;32;20255;-67
2021/04/01 03:03:36;;;;;;;37.13;20.30;;;12.20;78.00;;;;;;4369935;32;20590;-67
2021/04/01 03:06:03;;;;;;;35.80;20.20;;;12.10;78.30;;;;;;4368135;32;20169;-68
2021/04/01 03:08:31;;;;;;;41.20;21.57;;;12.10;79.80;;;;;;4369668;32;20172;-68
2021/04/01 03:10:57;;;;;;;38.37;19.80;;;12.00;80.70;;;;;;4366730;32;20168;-67
2021/04/01 03:13:24;;;;;;;33.70;19.33;;;12.00;79.00;;;;;;4370949;32;20601;-68
2021/04/01 03:15:53;;;;;;;32.77;18.20;;;12.00;79.60;;;;;;4373220;32;20156;-68
2021/04/01 03:18:20;;;;;;;37.70;20.37;;;11.90;81.20;;;;;;4365866;32;20219;-67
2021/04/01 03:20:48;;;;;;;39.33;21.43;;;11.90;80.20;;;;;;4366448;32;20532;-68
2021/04/01 03:23:14;;;;;;;35.80;20.37;;;11.90;79.60;;;;;;4369924;32;20605;-67
2021/04/01 03:25:42;;;;;;;37.97;20.77;;;11.90;80.60;;;;;;4362716;32;20156;-68
2021/04/01 03:28:09;;;;;;;39.33;20.70;;;11.80;79.80;;;;;;4365230;32;20267;-67
2021/04/01 03:30:41;;;;;;;37.07;20.80;;;11.80;79.90;;;;;;4367344;32;20516;-68
2021/04/01 03:33:09;;;;;;;35.93;20.70;;;11.80;81.50;;;;;;4365033;32;20217;-67
2021/04/01 03:35:36;;;;;;;39.67;21.73;;;11.70;80.30;;;;;;4363114;32;20183;-66
2021/04/01 03:38:04;;;;;;;40.33;20.67;;;11.70;80.90;;;;;;4368363;32;20176;-67
2021/04/01 03:40:31;;;;;;;34.33;20.63;;;11.60;80.50;;;;;;4360068;32;20184;-67
2021/04/01 03:42:58;;;;;;;39.43;21.13;;;11.70;81.40;;;;;;4361509;32;20211;-68
2021/04/01 03:45:25;;;;;;;37.33;20.60;;;11.70;80.30;;;;;;4365317;32;20152;-68
2021/04/01 03:47:51;;;;;;;42.33;23.50;;;11.70;80.50;;;;;;4364232;32;20218;-68
2021/04/01 03:50:17;;;;;;;38.97;20.03;;;11.70;80.80;;;;;;4361752;32;20169;-67
2021/04/01 03:52:43;;;;;;;40.17;21.83;;;11.60;81.90;;;;;;4368719;32;20214;-66
2021/04/01 03:55:21;;;;;;;36.67;20.60;;;11.60;81.70;;;;;;4361233;32;20206;-66
2021/04/01 03:57:49;;;;;;;38.20;20.50;;;11.60;81.90;;;;;;4360187;32;20160;-67
2021/04/01 04:00:18;;;;;;;43.77;22.77;;;11.50;82.60;;;;;;4363488;32;20231;-69
2021/04/01 04:02:54;;;;;;;40.40;21.97;;;11.50;81.90;;;;;;4361295;32;20156;-69
2021/04/01 04:05:29;;;;;;;42.40;21.83;;;11.40;81.80;;;;;;4364326;32;20167;-67
2021/04/01 04:08:17;;;;;;;41.47;23.07;;;11.30;82.40;;;;;;4368764;32;20247;-67
2021/04/01 04:11:01;;;;;;;36.80;21.83;;;11.30;82.20;;;;;;4361148;32;20223;-68
2021/04/01 04:13:32;;;;;;;44.60;22.53;;;11.30;82.70;;;;;;4362321;32;20154;-66
2021/04/01 04:16:00;;;;;;;49.17;23.73;;;11.20;82.80;;;;;;4371593;32;20196;-68
2021/04/01 04:18:26;;;;;;;43.57;21.40;;;11.20;82.80;;;;;;4367681;32;20153;-67
2021/04/01 04:20:53;;;;;;;43.83;23.57;;;11.20;84.20;;;;;;4364966;32;20157;-69
2021/04/01 04:23:20;;;;;;;43.13;23.30;;;11.10;84.10;;;;;;4367742;32;20250;-67
2021/04/01 04:25:47;;;;;;;50.03;24.63;;;11.00;85.40;;;;;;4365912;32;20159;-68
2021/04/01 04:28:25;;;;;;;53.40;25.87;;;10.90;84.50;;;;;;4363579;32;20173;-67
2021/04/01 04:30:51;;;;;;;54.07;26.37;;;11.00;84.30;;;;;;4361526;32;20242;-66
2021/04/01 04:33:19;;;;;;;48.63;25.60;;;11.00;84.00;;;;;;4360210;32;20173;-68
2021/04/01 04:35:45;;;;;;;43.87;24.07;;;11.00;84.10;;;;;;4360758;32;20190;-66
2021/04/01 04:38:12;;;;;;;53.57;26.90;;;11.00;84.30;;;;;;4362560;32;20514;-66
2021/04/01 04:40:41;;;;;;;45.57;23.53;;;11.00;84.50;;;;;;4361213;32;20196;-67
2021/04/01 04:43:08;;;;;;;44.53;24.50;;;10.90;86.30;;;;;;4352840;32;20188;-68
2021/04/01 04:45:37;;;;;;;52.47;25.57;;;10.90;84.80;;;;;;4373568;32;20573;-65
2021/04/01 04:48:04;;;;;;;47.93;25.30;;;10.90;84.50;;;;;;4371495;32;20572;-67
2021/04/01 04:50:31;;;;;;;51.37;26.60;;;10.90;85.20;;;;;;4366290;32;20185;-68
2021/04/01 04:52:58;;;;;;;49.67;25.40;;;10.80;84.20;;;;;;4367839;32;20529;-67
2021/04/01 04:55:25;;;;;;;44.97;24.67;;;10.80;84.80;;;;;;4366264;32;20234;-67
2021/04/01 04:57:54;;;;;;;52.20;25.90;;;10.80;86.00;;;;;;4365168;32;20712;-67
2021/04/01 05:05:58;;;;;;;57.73;26.27;;;10.70;85.00;;;;;;4361658;32;20534;-67
2021/04/01 05:08:25;;;;;;;59.20;28.13;;;10.70;85.00;;;;;;4361757;32;20483;-67
2021/04/01 05:10:52;;;;;;;53.97;27.17;;;10.70;85.10;;;;;;4363232;32;20200;-66
2021/04/01 05:13:19;;;;;;;53.07;26.80;;;10.70;85.30;;;;;;4359775;32;20595;-67
2021/04/01 05:15:50;;;;;;;47.87;24.73;;;10.60;86.00;;;;;;4368477;32;20171;-67
2021/04/01 05:18:22;;;;;;;63.63;28.97;;;10.60;86.60;;;;;;4363717;32;20220;-68
2021/04/01 05:20:49;;;;;;;60.17;29.70;;;10.60;87.50;;;;;;4358676;32;20196;-66
2021/04/01 05:23:35;;;;;;;65.73;29.47;;;10.60;87.70;;;;;;4359274;32;20192;-67
2021/04/01 05:28:49;;;;;;;66.80;30.33;;;10.70;87.10;;;;;;4319813;33;20193;-66
2021/04/01 05:31:18;;;;;;;60.93;30.80;;;10.80;86.90;;;;;;4322426;33;20209;-67
2021/04/01 05:33:45;;;;;;;72.20;34.47;;;10.80;88.00;;;;;;4317594;33;20267;-68
2021/04/01 05:36:15;;;;;;;74.70;33.80;;;10.80;88.10;;;;;;4323750;33;20179;-68
2021/04/01 05:38:42;;;;;;;76.43;34.90;;;10.90;87.90;;;;;;4321435;33;20637;-66
2021/04/01 05:41:10;;;;;;;80.97;36.43;;;11.00;88.00;;;;;;4323219;33;20587;-66
2021/04/01 05:43:40;;;;;;;81.17;35.83;;;11.10;87.60;;;;;;4321689;33;20192;-66
2021/04/01 05:46:12;;;;;;;75.17;34.50;;;11.20;87.20;;;;;;4317459;33;20255;-67
2021/04/01 05:48:43;;;;;;;81.90;38.17;;;11.30;86.90;;;;;;4318673;33;20905;-66
2021/04/01 05:51:34;;;;;;;77.40;38.73;;;11.30;86.80;;;;;;4318697;33;20247;-67
2021/04/01 05:57:36;;;;;;;82.83;40.33;;;11.40;86.70;;;;;;4288784;33;20175;-67
2021/04/01 06:00:24;;;;;;;91.77;43.60;;;11.50;86.80;;;;;;4290904;33;20226;-66
2021/04/01 06:03:08;;;;;;;92.47;45.20;;;11.60;86.60;;;;;;4292292;33;20210;-66
2021/04/01 06:05:39;;;;;;;97.97;47.67;;;11.70;86.80;;;;;;4301406;33;20173;-66
2021/04/01 06:08:10;;;;;;;95.50;47.27;;;11.70;86.60;;;;;;4326543;33;20349;-66
2021/04/01 06:10:39;;;;;;;97.37;50.03;;;11.70;86.50;;;;;;4337054;33;20172;-66
2021/04/01 06:13:10;;;;;;;93.47;49.20;;;11.70;86.60;;;;;;4338346;33;20248;-65
2021/04/01 06:15:36;;;;;;;94.67;48.07;;;11.70;86.60;;;;;;4340547;33;20216;-66
2021/04/01 06:18:13;;;;;;;102.90;50.80;;;11.90;86.20;;;;;;4337125;33;20177;-65
2021/04/01 06:20:42;;;;;;;97.77;50.20;;;12.10;85.50;;;;;;4344558;33;20268;-66
2021/04/01 06:23:18;;;;;;;95.93;48.97;;;12.10;85.30;;;;;;4345201;33;20211;-65
2021/04/01 06:25:49;;;;;;;110.13;51.60;;;12.20;85.10;;;;;;4344184;33;20248;-64
2021/04/01 06:28:28;;;;;;;101.83;52.67;;;12.30;84.80;;;;;;4345287;33;20501;-64
2021/04/01 06:31:01;;;;;;;118.03;54.67;;;12.30;85.00;;;;;;4340983;33;20175;-67
2021/04/01 06:33:28;;;;;;;102.77;52.57;;;12.40;85.50;;;;;;4356981;33;20169;-65
2021/04/01 06:36:00;;;;;;;103.30;51.90;;;12.50;84.40;;;;;;4357504;32;20160;-65
2021/04/01 06:38:36;;;;;;;110.43;56.23;;;12.70;83.30;;;;;;4360674;33;20196;-64
2021/04/01 06:41:18;;;;;;;110.33;58.10;;;12.90;83.10;;;;;;4349842;33;20227;-64
2021/04/01 06:44:09;;;;;;;107.77;56.23;;;12.60;83.60;;;;;;4361577;32;20180;-64
2021/04/01 06:46:51;;;;;;;107.07;56.77;;;12.60;84.40;;;;;;4353202;32;20161;-65
2021/04/01 06:49:42;;;;;;;115.33;62.83;;;12.70;84.80;;;;;;4333471;33;20202;-64
2021/04/01 06:52:19;;;;;;;102.20;59.70;;;12.80;83.40;;;;;;4354541;33;20655;-65
2021/04/01 06:55:00;;;;;;;122.03;63.47;;;13.00;83.30;;;;;;4357308;32;20172;-66
2021/04/01 06:57:42;;;;;;;119.80;64.10;;;13.30;82.40;;;;;;4356097;33;20551;-65
2021/04/01 07:00:15;;;;;;;125.17;66.97;;;13.40;82.40;;;;;;4355207;33;20481;-65
2021/04/01 07:02:51;;;;;;;122.77;66.60;;;13.30;82.70;;;;;;4356005;32;20473;-65
2021/04/01 07:05:35;;;;;;;116.57;64.33;;;13.40;82.20;;;;;;4354003;32;20209;-64
2021/04/01 07:08:06;;;;;;;121.30;66.33;;;13.70;81.50;;;;;;4354774;33;20210;-65
2021/04/01 07:10:51;;;;;;;119.33;68.13;;;13.80;81.40;;;;;;4352616;33;20574;-64
2021/04/01 07:13:24;;;;;;;131.13;69.07;;;13.40;82.10;;;;;;4356418;32;20274;-64
2021/04/01 07:15:54;;;;;;;123.23;71.07;;;13.60;81.60;;;;;;4354180;33;20157;-63
2021/04/01 07:18:34;;;;;;;125.33;72.97;;;13.70;81.60;;;;;;4357361;33;20262;-63
2021/04/01 07:32:48;;;;;;;126.17;74.13;;;14.10;80.00;;;;;;4296550;33;20233;-62
2021/04/01 07:46:29;;;;;;;130.73;70.50;;;14.60;76.20;;;;;;4310372;33;20212;-62
2021/04/01 07:49:03;;;;;;;123.33;70.57;;;14.60;76.50;;;;;;4309332;33;20176;-64
2021/04/01 07:54:17;;;;;;;117.70;69.77;;;14.60;77.20;;;;;;4313384;33;20276;-65
2021/04/01 07:56:47;;;;;;;116.53;65.67;;;14.80;76.50;;;;;;4310274;33;20200;-66
2021/04/01 07:59:30;;;;;;;119.37;64.83;;;15.00;75.40;;;;;;4310994;33;20182;-67
2021/04/01 08:02:07;;;;;;;109.67;61.97;;;15.00;74.80;;;;;;4311572;33;20657;-66
2021/04/01 08:04:41;;;;;;;105.57;63.20;;;15.20;75.00;;;;;;4339427;32;20187;-65
2021/04/01 08:07:11;;;;;;;102.03;58.47;;;15.50;73.70;;;;;;4353470;32;20167;-65
2021/04/01 08:09:41;;;;;;;96.97;58.03;;;15.40;73.60;;;;;;4366151;32;20179;-63
2021/04/01 08:12:23;;;;;;;109.37;61.03;;;15.60;73.90;;;;;;4367461;32;20523;-63
2021/04/01 08:14:59;;;;;;;106.83;60.73;;;15.60;72.40;;;;;;4364926;32;20227;-63
2021/04/01 08:17:29;;;;;;;105.50;59.93;;;15.50;73.00;;;;;;4367141;32;20155;-66
2021/04/01 08:19:59;;;;;;;107.50;61.00;;;15.50;73.50;;;;;;4367218;32;20166;-64
2021/04/01 08:22:30;;;;;;;101.97;58.20;;;16.70;70.80;;;;;;4365547;32;20449;-66
2021/04/01 08:25:02;;;;;;;98.80;56.10;;;19.00;64.90;;;;;;4365324;32;20223;-66
2021/04/01 08:27:43;;;;;;;99.27;56.87;;;22.00;57.20;;;;;;4371269;32;20198;-64
2021/04/01 08:35:54;;;;;;;100.67;58.50;;;25.80;45.40;;;;;;4307865;33;20166;-64
2021/04/01 08:38:22;;;;;;;91.87;57.47;;;25.70;44.30;;;;;;4305719;33;20167;-64
2021/04/01 08:40:49;;;;;;;87.43;53.77;;;25.90;44.80;;;;;;4307730;33;20174;-65
2021/04/01 08:43:39;;;;;;;89.57;53.37;;;26.10;44.10;;;;;;4309947;33;20161;-65
2021/04/01 08:46:19;;;;;;;89.00;54.40;;;26.80;43.70;;;;;;4264099;33;20277;-64
2021/04/01 08:49:09;;;;;;;84.80;53.70;;;25.50;43.50;;;;;;4262368;33;20600;-65
2021/04/01 08:51:53;;;;;;;83.67;53.37;;;25.90;43.70;;;;;;4264343;33;20246;-64
2021/04/01 08:54:27;;;;;;;79.13;45.40;;;25.80;43.90;;;;;;4270315;33;20182;-65
2021/04/01 08:57:00;;;;;;;81.67;46.23;;;23.40;46.30;;;;;;4267924;33;20636;-64
2021/04/01 08:59:33;;;;;;;67.97;40.60;;;20.20;54.10;;;;;;4269164;33;20175;-63
2021/04/01 09:02:00;;;;;;;60.37;34.97;;;18.00;60.80;;;;;;4267269;33;20269;-63
2021/04/01 09:04:32;;;;;;;61.90;34.90;;;16.60;65.00;;;;;;4266569;33;20744;-65
2021/04/01 09:07:03;;;;;;;61.60;33.63;;;16.00;67.80;;;;;;4295441;33;20611;-65
2021/04/01 09:09:32;;;;;;;50.27;29.77;;;15.60;69.70;;;;;;4302973;33;20225;-65
2021/04/01 09:12:09;;;;;;;52.43;26.93;;;15.60;69.50;;;;;;4298407;33;20170;-67
2021/04/01 09:14:38;;;;;;;35.67;21.57;;;15.50;69.80;;;;;;4302919;33;20594;-65
2021/04/01 09:17:08;;;;;;;33.63;18.93;;;15.30;70.50;;;;;;4299998;33;20173;-65
2021/04/01 09:19:36;;;;;;;37.73;18.07;;;15.50;69.70;;;;;;4300127;33;20350;-66
2021/04/01 09:22:15;;;;;;;34.10;18.23;;;15.30;69.20;;;;;;4302624;33;20166;-65
2021/04/01 09:24:42;;;;;;;27.83;14.20;;;15.30;69.50;;;;;;4356102;32;20508;-65
2021/04/01 09:27:11;;;;;;;22.10;12.57;;;15.40;68.40;;;;;;4357068;32;20183;-64
2021/04/01 09:29:43;;;;;;;20.43;10.00;;;15.60;66.80;;;;;;4355849;32;20175;-65
2021/04/01 09:32:12;;;;;;;20.63;10.60;;;15.50;66.30;;;;;;4361405;32;21497;-65
2021/04/01 09:34:44;;;;;;;20.10;9.33;;;15.50;65.60;;;;;;4353975;33;20164;-65
2021/04/01 09:37:13;;;;;;;18.70;9.47;;;15.20;66.00;;;;;;4353378;32;20184;-65
2021/04/01 09:39:43;;;;;;;20.50;9.17;;;15.10;66.20;;;;;;4359972;32;20161;-63
2021/04/01 09:42:11;;;;;;;17.23;8.87;;;15.00;67.10;;;;;;4361323;32;20192;-65
2021/04/01 09:44:50;;;;;;;19.73;8.20;;;14.80;67.80;;;;;;4357120;32;20239;-64
2021/04/01 09:47:24;;;;;;;18.17;7.57;;;14.80;67.70;;;;;;4359273;33;20495;-63
2021/04/01 09:49:57;;;;;;;17.60;7.90;;;14.70;68.30;;;;;;4361953;32;20165;-65
2021/04/01 09:52:27;;;;;;;16.97;7.40;;;14.70;69.20;;;;;;4360630;33;20188;-64
2021/04/01 09:54:56;;;;;;;27.93;8.40;;;14.70;69.20;;;;;;4360349;32;20160;-65
2021/04/01 09:57:37;;;;;;;13.70;6.03;;;14.60;68.70;;;;;;4359305;33;20175;-64
2021/04/01 10:00:17;;;;;;;16.73;6.50;;;14.50;69.40;;;;;;4357119;32;20281;-64
2021/04/01 10:03:04;;;;;;;12.47;5.13;;;14.60;70.00;;;;;;4356318;32;20558;-63
2021/04/01 10:05:42;;;;;;;16.73;4.93;;;14.60;70.60;;;;;;4360291;32;20168;-65
2021/04/01 10:08:10;;;;;;;11.90;4.93;;;14.60;70.90;;;;;;4359695;32;20202;-65
2021/04/01 10:10:40;;;;;;;10.63;4.23;;;14.70;70.00;;;;;;4372682;32;20198;-64
2021/04/01 10:13:19;;;;;;;14.07;4.20;;;14.80;70.10;;;;;;4375337;32;20176;-66
2021/04/01 10:15:46;;;;;;;14.13;4.20;;;14.90;70.30;;;;;;4369359;32;20612;-64
2021/04/01 10:18:17;;;;;;;13.77;4.20;;;14.80;69.80;;;;;;4373144;32;20171;-64
2021/04/01 10:20:51;;;;;;;9.50;3.87;;;14.80;70.40;;;;;;4369833;32;20231;-64
2021/04/01 10:23:19;;;;;;;14.80;3.77;;;14.90;70.00;;;;;;4364697;32;20274;-65
2021/04/01 10:25:50;;;;;;;11.20;3.40;;;14.90;70.00;;;;;;4368643;32;20201;-64
2021/04/01 10:28:36;;;;;;;13.63;3.67;;;14.90;69.90;;;;;;4372224;32;20164;-65
2021/04/01 10:31:15;;;;;;;13.97;3.77;;;14.80;70.00;;;;;;4374009;32;20166;-65
2021/04/01 10:33:54;;;;;;;14.47;3.60;;;14.90;70.30;;;;;;4369769;32;20161;-65
2021/04/01 10:36:28;;;;;;;19.37;3.87;;;15.00;70.00;;;;;;4376221;32;20585;-65
2021/04/01 10:39:03;;;;;;;15.03;3.87;;;15.00;69.90;;;;;;4369057;32;20160;-65
2021/04/01 10:41:33;;;;;;;13.93;4.07;;;14.80;70.70;;;;;;4376365;32;20183;-65
2021/04/01 10:44:00;;;;;;;15.10;3.77;;;14.80;70.20;;;;;;4363642;32;20242;-65
2021/04/01 10:46:28;;;;;;;11.73;3.50;;;14.70;71.30;;;;;;4370860;32;20196;-65
2021/04/01 10:48:56;;;;;;;16.20;3.73;;;14.60;71.50;;;;;;4363674;32;20181;-64
2021/04/01 10:51:26;;;;;;;14.37;3.50;;;14.70;71.10;;;;;;4369259;32;20266;-64
2021/04/01 10:53:53;;;;;;;13.50;4.17;;;14.70;71.50;;;;;;4364479;32;20225;-64
2021/04/01 10:56:20;;;;;;;13.20;3.83;;;14.60;71.30;;;;;;4371827;32;20156;-64
2021/04/01 10:58:54;;;;;;;24.07;4.40;;;14.70;72.10;;;;;;4372873;32;20190;-64
2021/04/01 11:01:23;;;;;;;15.43;4.07;;;14.70;72.00;;;;;;4373719;32;20194;-65
2021/04/01 11:03:54;;;;;;;21.83;4.90;;;14.90;71.70;;;;;;4374368;32;20326;-65
2021/04/01 11:06:21;;;;;;;15.70;3.90;;;14.70;72.40;;;;;;4372298;32;20241;-64
2021/04/01 11:08:50;;;;;;;22.33;4.20;;;14.60;72.30;;;;;;4368262;32;20163;-66
2021/04/01 11:11:16;;;;;;;16.63;4.40;;;14.20;73.90;;;;;;4366768;32;20243;-65
2021/04/01 11:13:46;;;;;;;14.10;4.13;;;14.40;73.70;;;;;;4371124;32;20187;-65
2021/04/01 11:16:14;;;;;;;17.97;4.07;;;13.80;75.60;;;;;;4369535;32;20157;-65
2021/04/01 11:18:45;;;;;;;18.40;4.53;;;14.10;75.20;;;;;;4372203;32;20659;-64
2021/04/01 11:21:17;;;;;;;12.50;4.07;;;14.20;74.10;;;;;;4371839;32;20200;-64
2021/04/01 11:23:44;;;;;;;16.30;3.70;;;14.30;74.40;;;;;;4368754;32;20183;-64
2021/04/01 11:26:11;;;;;;;15.37;4.40;;;14.40;73.70;;;;;;4375378;32;20295;-65
2021/04/01 11:28:40;;;;;;;13.83;3.83;;;14.30;73.80;;;;;;4372327;32;20630;-64
2021/04/01 11:31:09;;;;;;;17.47;4.60;;;14.30;73.80;;;;;;4372902;32;20254;-64
2021/04/01 11:33:38;;;;;;;13.90;4.43;;;14.20;74.70;;;;;;4364294;32;20234;-65
2021/04/01 11:36:09;;;;;;;11.70;4.10;;;14.30;74.30;;;;;;4361500;33;20203;-65
2021/04/01 11:38:39;;;;;;;16.63;4.47;;;14.40;74.10;;;;;;4362950;32;20179;-64
2021/04/01 11:41:09;;;;;;;11.47;3.60;;;14.60;73.80;;;;;;4369792;32;20162;-65
2021/04/01 11:43:36;;;;;;;13.80;4.10;;;14.20;74.80;;;;;;4363135;32;20214;-64
2021/04/01 11:46:14;;;;;;;8.60;3.03;;;14.40;73.90;;;;;;4369922;32;20226;-65
2021/04/01 11:48:42;;;;;;;16.47;3.70;;;14.40;73.90;;;;;;4371301;32;20522;-65
2021/04/01 11:51:13;;;;;;;17.83;3.83;;;14.10;75.00;;;;;;4373501;32;20153;-66
2021/04/01 11:53:40;;;;;;;11.33;3.40;;;14.40;74.60;;;;;;4361878;32;20212;-64
2021/04/01 11:56:07;;;;;;;12.13;4.27;;;14.20;74.90;;;;;;4367313;32;20173;-64
2021/04/01 11:58:34;;;;;;;13.13;3.97;;;14.00;75.50;;;;;;4371004;32;20171;-63
2021/04/01 12:01:09;;;;;;;12.10;3.13;;;14.30;74.90;;;;;;4370041;32;20207;-65
2021/04/01 12:03:47;;;;;;;14.33;4.10;;;14.30;74.30;;;;;;4371667;32;20164;-64
2021/04/01 12:06:15;;;;;;;15.70;3.70;;;14.20;74.70;;;;;;4372638;32;20194;-65
2021/04/01 12:08:42;;;;;;;10.37;3.20;;;14.50;74.40;;;;;;4373310;32;20187;-65
2021/04/01 12:11:09;;;;;;;12.33;3.37;;;14.60;74.60;;;;;;4373040;32;20194;-64
2021/04/01 12:13:35;;;;;;;11.80;3.50;;;14.60;72.70;;;;;;4373577;32;20183;-64
2021/04/01 12:16:02;;;;;;;11.67;3.50;;;14.40;73.00;;;;;;4370681;32;20573;-65
2021/04/01 12:18:41;;;;;;;12.83;3.20;;;14.20;73.60;;;;;;4368948;32;20164;-64
2021/04/01 12:21:08;;;;;;;15.50;3.23;;;13.90;74.40;;;;;;4370032;32;20160;-64
2021/04/01 12:23:44;;;;;;;9.17;3.37;;;14.00;74.50;;;;;;4371585;32;20157;-64
2021/04/01 12:26:10;;;;;;;11.60;4.40;;;14.10;74.20;;;;;;4373698;32;20195;-64
2021/04/01 12:28:37;;;;;;;13.87;3.77;;;14.10;74.00;;;;;;4373964;32;20160;-65
2021/04/01 12:31:12;;;;;;;14.57;3.20;;;14.00;74.60;;;;;;4369479;32;20172;-64
2021/04/01 12:33:49;;;;;;;15.10;3.87;;;13.90;75.70;;;;;;4375009;32;20178;-64
2021/04/01 12:36:16;;;;;;;16.63;3.40;;;13.90;74.70;;;;;;4372979;32;20152;-63
2021/04/01 12:38:45;;;;;;;9.00;3.10;;;14.00;74.40;;;;;;4365626;32;20206;-65
2021/04/01 12:41:23;;;;;;;12.93;3.23;;;14.20;73.20;;;;;;4370580;32;20152;-63
2021/04/01 12:43:49;;;;;;;8.70;2.73;;;14.30;73.20;;;;;;4374224;32;20196;-64
2021/04/01 12:46:16;;;;;;;12.87;3.20;;;14.20;73.10;;;;;;4369241;32;20722;-63
2021/04/01 12:48:44;;;;;;;11.90;3.87;;;14.20;73.10;;;;;;4368318;32;20171;-64
2021/04/01 12:51:13;;;;;;;14.10;3.30;;;14.20;73.10;;;;;;4368464;32;20203;-64
2021/04/01 12:53:40;;;;;;;11.13;3.43;;;14.30;71.90;;;;;;4371636;32;20157;-64
2021/04/01 12:56:13;;;;;;;12.07;3.20;;;14.10;72.30;;;;;;4369303;32;20157;-64
2021/04/01 12:58:43;;;;;;;13.70;3.33;;;14.00;72.60;;;;;;4372733;32;20274;-65
2021/04/01 13:01:20;;;;;;;15.50;3.80;;;14.00;72.60;;;;;;4369612;32;20161;-63
2021/04/01 13:03:46;;;;;;;8.90;3.13;;;13.70;73.10;;;;;;4365005;32;20216;-64
2021/04/01 13:06:17;;;;;;;14.27;3.57;;;13.60;74.30;;;;;;4364319;32;20169;-64
2021/04/01 13:11:20;;;;;;;10.77;3.77;;;13.50;76.10;;;;;;4367552;32;20190;-64
2021/04/01 13:13:46;;;;;;;14.57;3.63;;;13.50;75.70;;;;;;4365812;32;20161;-62
2021/04/01 13:16:13;;;;;;;18.33;4.30;;;13.50;76.30;;;;;;4370582;32;20241;-63
2021/04/01 13:18:40;;;;;;;11.63;4.17;;;13.60;75.40;;;;;;4368173;32;20325;-65
2021/04/01 13:21:19;;;;;;;17.07;3.50;;;13.60;75.50;;;;;;4369313;32;20585;-64
2021/04/01 13:23:57;;;;;;;13.97;3.97;;;13.60;75.00;;;;;;4367403;32;20168;-66
2021/04/01 13:26:24;;;;;;;17.37;3.63;;;13.60;74.80;;;;;;4363711;32;20213;-64
2021/04/01 13:28:51;;;;;;;16.63;3.57;;;13.50;74.70;;;;;;4366659;32;20242;-65
2021/04/01 13:31:26;;;;;;;13.07;3.13;;;13.50;75.00;;;;;;4368008;32;20157;-64